KCRG

Jacksonville Executive at Craig Airport

Jacksonville, Florida, USA
KCRG 232054Z 2321/2418 18010KT P6SM VCSH SCT035 BKN060 TEMPO 2321/2323 VRB15G30KT 3SM TSRA BKN025CB FM240100 17010KT P6SM VCSH OVC020 FM240700 22005KT P6SM BKN015 FM241500 26008KT P6SM SCT035
Issued Valid From Valid To
Apr-23 @ 20:54 UTC
(2 hours ago)
Apr-23 @ 21:00 UTC
(2 hours ago)
Apr-24 @ 18:00 UTC
(in 19 hours)
Apr-23 @ 21:00 to Apr-24 @ 01:00
KCRG 232054Z 2321/2418 18010KT P6SM VCSH SCT035 BKN060
Wind Visibility Clouds
180° at 10 knots Greater than 6 miles
  • Scattered at 3,500' AGL
  • Broken at 6,000' AGL
Temporary Apr-23 @ 21:00 to Apr-23 @ 23:00
TEMPO 2321/2323 VRB15G30KT 3SM TSRA BKN025CB
Wind Visibility Clouds Conditions
Variable at 15 knots
 Gusting to 30 knots
3 miles
  • Broken at 2,500' AGL
  • Thunderstorm
  • Rain
From Apr-24 @ 01:00 to Apr-24 @ 07:00
FM240100 17010KT P6SM VCSH OVC020
Wind Visibility Clouds
170° at 10 knots Greater than 6 miles
  • Overcast at 2,000' AGL
From Apr-24 @ 07:00 to Apr-24 @ 15:00
FM240700 22005KT P6SM BKN015
Wind Visibility Clouds
220° at 5 knots Greater than 6 miles
  • Broken at 1,500' AGL
From Apr-24 @ 15:00 to Apr-24 @ 18:00
FM241500 26008KT P6SM SCT035
Wind Visibility Clouds
260° at 8 knots Greater than 6 miles
  • Scattered at 3,500' AGL
KCRG 232054Z 2321/2418 18010KT P6SM VCSH SCT035 BKN060 TEMPO 2321/2323 VRB15G30KT 3SM TSRA BKN025CB FM240100 17010KT P6SM VCSH OVC020 FM240700 22005KT P6SM BKN015 FM241500 26008KT P6SM SCT035
Issued Apr-23 @ 20:54 UTC
(2 hours ago)
Valid From Apr-23 @ 21:00 UTC
(2 hours ago)
Valid To Apr-24 @ 18:00 UTC
(in 19 hours)
Apr-23 @ 21:00 - Apr-24 @ 01:00
Wind Visibility
180° at 10 knots Greater than 6 miles
Clouds
  • Scattered at 3,500' AGL
  • Broken at 6,000' AGL
Temporary Apr-23 @ 21:00 - Apr-23 @ 23:00
Wind Visibility
Variable at 15 knots
 Gusting to 30 knots
3 miles
Clouds
  • Broken at 2,500' AGL
Conditions
  • Thunderstorm
  • Rain
From Apr-24 @ 01:00 - Apr-24 @ 07:00
Wind Visibility
170° at 10 knots Greater than 6 miles
Clouds
  • Overcast at 2,000' AGL
From Apr-24 @ 07:00 - Apr-24 @ 15:00
Wind Visibility
220° at 5 knots Greater than 6 miles
Clouds
  • Broken at 1,500' AGL
From Apr-24 @ 15:00 - Apr-24 @ 18:00
Wind Visibility
260° at 8 knots Greater than 6 miles
Clouds
  • Scattered at 3,500' AGL